Exchange, West Virginia
Current Conditions -  °F | °C
As of 7:35 PM on Monday 24 Nov 2014 (Local Time) from KW22 Reporting Station
Clear Clear  
Wind Chill: 57°   Ceiling: Unl
Heat Index: 57°   Visibility: 10mi
Dew Point: 39°   Wind: 7mph
Humidity: 51%   Direction: 240°WSW
Pressure: 29.75"   Gusts: 20mph
Location:  38.77°N, 80.72°W
Report Text: KW22 250035Z AUTO 24006G17KT 10SM CLR 14/04 A2975 RMK AO2
Loading
Personal Weather Stations






























Interactive Weather Map New forecast layout! Learn more

10-Day Weather Forecast

Advertisements
Track Severe Weather on mobile